sensor_id;sensor_type;location;lat;lon;timestamp;temperature;humidity
52125;DHT22;38119;52.710;6.398;2022-11-15T00:01:51;8.10;99.90
52125;DHT22;38119;52.710;6.398;2022-11-15T00:04:17;8.20;99.90
52125;DHT22;38119;52.710;6.398;2022-11-15T00:06:43;8.10;99.90
52125;DHT22;38119;52.710;6.398;2022-11-15T00:09:08;8.10;99.90
52125;DHT22;38119;52.710;6.398;2022-11-15T00:11:34;8.10;99.90
52125;DHT22;38119;52.710;6.398;2022-11-15T00:13:59;8.10;99.90
52125;DHT22;38119;52.710;6.398;2022-11-15T00:16:28;8.10;99.90
52125;DHT22;38119;52.710;6.398;2022-11-15T00:18:53;8.10;99.90
52125;DHT22;38119;52.710;6.398;2022-11-15T00:21:19;8.30;99.90
52125;DHT22;38119;52.710;6.398;2022-11-15T00:23:44;8.10;99.90
52125;DHT22;38119;52.710;6.398;2022-11-15T00:26:14;8.10;99.90
52125;DHT22;38119;52.710;6.398;2022-11-15T00:28:41;8.10;99.90
52125;DHT22;38119;52.710;6.398;2022-11-15T00:31:10;8.10;99.90
52125;DHT22;38119;52.710;6.398;2022-11-15T00:33:36;8.10;99.90
52125;DHT22;38119;52.710;6.398;2022-11-15T00:36:11;8.10;99.90
52125;DHT22;38119;52.710;6.398;2022-11-15T00:38:38;8.10;99.90
52125;DHT22;38119;52.710;6.398;2022-11-15T00:41:05;8.10;99.90
52125;DHT22;38119;52.710;6.398;2022-11-15T00:43:31;8.00;99.90
52125;DHT22;38119;52.710;6.398;2022-11-15T00:45:57;8.00;99.90
52125;DHT22;38119;52.710;6.398;2022-11-15T00:48:23;8.00;99.90
52125;DHT22;38119;52.710;6.398;2022-11-15T00:50:49;8.00;99.90
52125;DHT22;38119;52.710;6.398;2022-11-15T00:53:15;8.00;99.90
52125;DHT22;38119;52.710;6.398;2022-11-15T00:55:41;8.00;99.90
52125;DHT22;38119;52.710;6.398;2022-11-15T00:58:07;8.00;99.90
52125;DHT22;38119;52.710;6.398;2022-11-15T01:00:36;8.00;99.90
52125;DHT22;38119;52.710;6.398;2022-11-15T01:03:01;8.00;99.90
52125;DHT22;38119;52.710;6.398;2022-11-15T01:05:27;7.90;99.90
52125;DHT22;38119;52.710;6.398;2022-11-15T01:07:55;7.90;99.90
52125;DHT22;38119;52.710;6.398;2022-11-15T01:10:21;7.90;99.90
52125;DHT22;38119;52.710;6.398;2022-11-15T01:12:47;7.90;99.90
52125;DHT22;38119;52.710;6.398;2022-11-15T01:15:13;7.90;99.90
52125;DHT22;38119;52.710;6.398;2022-11-15T01:17:38;7.90;99.90
52125;DHT22;38119;52.710;6.398;2022-11-15T01:20:05;7.90;99.90
52125;DHT22;38119;52.710;6.398;2022-11-15T01:22:30;7.90;99.90
52125;DHT22;38119;52.710;6.398;2022-11-15T01:24:56;7.90;99.90
52125;DHT22;38119;52.710;6.398;2022-11-15T01:27:22;8.00;99.90
52125;DHT22;38119;52.710;6.398;2022-11-15T01:29:47;8.00;99.90
52125;DHT22;38119;52.710;6.398;2022-11-15T01:32:13;8.00;99.90
52125;DHT22;38119;52.710;6.398;2022-11-15T01:34:38;8.00;99.90
52125;DHT22;38119;52.710;6.398;2022-11-15T01:37:04;8.10;99.90
52125;DHT22;38119;52.710;6.398;2022-11-15T01:39:29;8.10;99.90
52125;DHT22;38119;52.710;6.398;2022-11-15T01:41:55;8.10;99.90
52125;DHT22;38119;52.710;6.398;2022-11-15T01:44:41;8.10;99.90
52125;DHT22;38119;52.710;6.398;2022-11-15T01:47:20;8.10;99.90
52125;DHT22;38119;52.710;6.398;2022-11-15T01:49:53;8.10;99.90
52125;DHT22;38119;52.710;6.398;2022-11-15T01:52:23;8.10;99.90
52125;DHT22;38119;52.710;6.398;2022-11-15T01:54:54;8.10;99.90
52125;DHT22;38119;52.710;6.398;2022-11-15T01:57:22;8.10;99.90
52125;DHT22;38119;52.710;6.398;2022-11-15T01:59:47;8.10;99.90
52125;DHT22;38119;52.710;6.398;2022-11-15T02:02:13;8.10;99.90
52125;DHT22;38119;52.710;6.398;2022-11-15T02:04:45;8.10;99.90
52125;DHT22;38119;52.710;6.398;2022-11-15T02:07:14;8.10;99.90
52125;DHT22;38119;52.710;6.398;2022-11-15T02:09:40;8.20;99.90
52125;DHT22;38119;52.710;6.398;2022-11-15T02:12:08;8.10;99.90
52125;DHT22;38119;52.710;6.398;2022-11-15T02:14:34;8.20;99.90
52125;DHT22;38119;52.710;6.398;2022-11-15T02:26:08;8.30;99.90
52125;DHT22;38119;52.710;6.398;2022-11-15T02:28:48;8.20;99.90
52125;DHT22;38119;52.710;6.398;2022-11-15T02:34:43;8.30;99.90
52125;DHT22;38119;52.710;6.398;2022-11-15T02:37:21;8.30;99.90
52125;DHT22;38119;52.710;6.398;2022-11-15T02:40:07;8.30;99.90
52125;DHT22;38119;52.710;6.398;2022-11-15T02:42:43;8.30;99.90
52125;DHT22;38119;52.710;6.398;2022-11-15T02:45:36;8.30;99.90
52125;DHT22;38119;52.710;6.398;2022-11-15T02:48:06;8.30;99.90
52125;DHT22;38119;52.710;6.398;2022-11-15T02:50:33;8.30;99.90
52125;DHT22;38119;52.710;6.398;2022-11-15T02:52:59;8.40;99.90
52125;DHT22;38119;52.710;6.398;2022-11-15T02:55:36;8.30;99.90
52125;DHT22;38119;52.710;6.398;2022-11-15T03:11:51;8.50;99.90
52125;DHT22;38119;52.710;6.398;2022-11-15T03:14:28;8.50;99.90
52125;DHT22;38119;52.710;6.398;2022-11-15T03:19:34;8.50;99.90
52125;DHT22;38119;52.710;6.398;2022-11-15T03:22:05;8.50;99.90
52125;DHT22;38119;52.710;6.398;2022-11-15T03:24:34;8.50;99.90
52125;DHT22;38119;52.710;6.398;2022-11-15T03:27:02;8.50;99.90
52125;DHT22;38119;52.710;6.398;2022-11-15T03:29:42;8.60;99.90
52125;DHT22;38119;52.710;6.398;2022-11-15T03:32:18;8.60;99.90
52125;DHT22;38119;52.710;6.398;2022-11-15T03:34:49;8.60;99.90
52125;DHT22;38119;52.710;6.398;2022-11-15T03:37:16;8.60;99.90
52125;DHT22;38119;52.710;6.398;2022-11-15T03:39:43;8.60;99.90
52125;DHT22;38119;52.710;6.398;2022-11-15T03:42:32;8.60;99.90
52125;DHT22;38119;52.710;6.398;2022-11-15T03:47:53;8.70;99.90
52125;DHT22;38119;52.710;6.398;2022-11-15T03:50:21;8.70;99.90
52125;DHT22;38119;52.710;6.398;2022-11-15T03:52:48;8.70;99.90
52125;DHT22;38119;52.710;6.398;2022-11-15T03:55:20;8.90;99.90
52125;DHT22;38119;52.710;6.398;2022-11-15T03:57:47;8.70;99.90
52125;DHT22;38119;52.710;6.398;2022-11-15T04:00:13;8.70;99.90
52125;DHT22;38119;52.710;6.398;2022-11-15T04:02:39;8.70;99.90
52125;DHT22;38119;52.710;6.398;2022-11-15T04:05:05;8.80;99.90
52125;DHT22;38119;52.710;6.398;2022-11-15T04:07:30;8.80;99.90
52125;DHT22;38119;52.710;6.398;2022-11-15T04:09:56;8.80;99.90
52125;DHT22;38119;52.710;6.398;2022-11-15T04:12:28;8.80;99.90
52125;DHT22;38119;52.710;6.398;2022-11-15T04:17:41;8.90;99.90
52125;DHT22;38119;52.710;6.398;2022-11-15T04:20:23;8.90;99.90
52125;DHT22;38119;52.710;6.398;2022-11-15T04:23:17;8.90;99.90
52125;DHT22;38119;52.710;6.398;2022-11-15T04:26:04;9.00;99.90
52125;DHT22;38119;52.710;6.398;2022-11-15T04:28:30;9.00;99.90
52125;DHT22;38119;52.710;6.398;2022-11-15T04:30:55;9.00;99.90
52125;DHT22;38119;52.710;6.398;2022-11-15T04:33:22;9.10;99.90
52125;DHT22;38119;52.710;6.398;2022-11-15T04:35:47;9.10;99.90
52125;DHT22;38119;52.710;6.398;2022-11-15T04:38:34;9.10;99.90
52125;DHT22;38119;52.710;6.398;2022-11-15T04:40:59;9.20;99.90
52125;DHT22;38119;52.710;6.398;2022-11-15T04:43:25;9.20;99.90
52125;DHT22;38119;52.710;6.398;2022-11-15T04:45:51;9.20;99.90
52125;DHT22;38119;52.710;6.398;2022-11-15T04:48:16;9.20;99.90
52125;DHT22;38119;52.710;6.398;2022-11-15T04:50:42;9.30;99.90
52125;DHT22;38119;52.710;6.398;2022-11-15T04:53:07;9.30;99.90
52125;DHT22;38119;52.710;6.398;2022-11-15T04:55:33;9.30;99.90
52125;DHT22;38119;52.710;6.398;2022-11-15T04:57:59;9.30;99.90
52125;DHT22;38119;52.710;6.398;2022-11-15T05:00:27;9.40;99.90
52125;DHT22;38119;52.710;6.398;2022-11-15T05:02:53;9.40;99.90
52125;DHT22;38119;52.710;6.398;2022-11-15T05:05:37;9.40;99.90
52125;DHT22;38119;52.710;6.398;2022-11-15T05:08:03;9.40;99.90
52125;DHT22;38119;52.710;6.398;2022-11-15T05:10:28;9.50;99.90
52125;DHT22;38119;52.710;6.398;2022-11-15T05:12:54;9.50;99.90
52125;DHT22;38119;52.710;6.398;2022-11-15T05:15:20;9.50;99.90
52125;DHT22;38119;52.710;6.398;2022-11-15T05:17:45;9.50;99.90
52125;DHT22;38119;52.710;6.398;2022-11-15T05:20:11;9.50;99.90
52125;DHT22;38119;52.710;6.398;2022-11-15T05:22:37;9.50;99.90
52125;DHT22;38119;52.710;6.398;2022-11-15T05:25:03;9.50;99.90
52125;DHT22;38119;52.710;6.398;2022-11-15T05:27:29;9.50;99.90
52125;DHT22;38119;52.710;6.398;2022-11-15T05:29:54;9.60;99.90
52125;DHT22;38119;52.710;6.398;2022-11-15T05:32:20;9.60;99.90
52125;DHT22;38119;52.710;6.398;2022-11-15T05:34:46;9.60;99.90
52125;DHT22;38119;52.710;6.398;2022-11-15T05:37:12;9.60;99.90
52125;DHT22;38119;52.710;6.398;2022-11-15T05:39:38;9.60;99.90
52125;DHT22;38119;52.710;6.398;2022-11-15T05:42:10;9.70;99.90
52125;DHT22;38119;52.710;6.398;2022-11-15T05:44:38;9.70;99.90
52125;DHT22;38119;52.710;6.398;2022-11-15T05:47:06;9.80;99.90
52125;DHT22;38119;52.710;6.398;2022-11-15T05:49:35;9.70;99.90
52125;DHT22;38119;52.710;6.398;2022-11-15T05:52:05;9.70;99.90
52125;DHT22;38119;52.710;6.398;2022-11-15T05:54:33;9.70;99.90
52125;DHT22;38119;52.710;6.398;2022-11-15T05:56:59;9.80;99.90
52125;DHT22;38119;52.710;6.398;2022-11-15T05:59:25;9.80;99.90
52125;DHT22;38119;52.710;6.398;2022-11-15T06:01:53;9.80;99.90
52125;DHT22;38119;52.710;6.398;2022-11-15T06:04:19;9.80;99.90
52125;DHT22;38119;52.710;6.398;2022-11-15T06:06:44;9.80;99.90
52125;DHT22;38119;52.710;6.398;2022-11-15T06:09:10;9.90;99.90
52125;DHT22;38119;52.710;6.398;2022-11-15T06:11:35;9.90;99.90
52125;DHT22;38119;52.710;6.398;2022-11-15T06:14:01;9.90;99.90
52125;DHT22;38119;52.710;6.398;2022-11-15T06:16:27;10.00;99.90
52125;DHT22;38119;52.710;6.398;2022-11-15T06:18:52;10.00;99.90
52125;DHT22;38119;52.710;6.398;2022-11-15T06:21:18;10.00;99.90
52125;DHT22;38119;52.710;6.398;2022-11-15T06:23:43;10.00;99.90
52125;DHT22;38119;52.710;6.398;2022-11-15T06:26:09;10.00;99.90
52125;DHT22;38119;52.710;6.398;2022-11-15T06:28:34;10.00;99.90
52125;DHT22;38119;52.710;6.398;2022-11-15T06:31:05;10.00;99.90
52125;DHT22;38119;52.710;6.398;2022-11-15T06:33:31;10.10;99.90
52125;DHT22;38119;52.710;6.398;2022-11-15T06:36:03;10.10;99.90
52125;DHT22;38119;52.710;6.398;2022-11-15T06:38:29;10.10;99.90
52125;DHT22;38119;52.710;6.398;2022-11-15T06:40:54;10.20;99.90
52125;DHT22;38119;52.710;6.398;2022-11-15T06:43:20;10.20;99.90
52125;DHT22;38119;52.710;6.398;2022-11-15T06:45:46;10.20;99.90
52125;DHT22;38119;52.710;6.398;2022-11-15T06:48:11;10.30;99.90
52125;DHT22;38119;52.710;6.398;2022-11-15T06:50:37;10.20;99.90
52125;DHT22;38119;52.710;6.398;2022-11-15T06:53:05;10.20;99.90
52125;DHT22;38119;52.710;6.398;2022-11-15T06:55:31;10.30;99.90
52125;DHT22;38119;52.710;6.398;2022-11-15T06:57:57;10.30;99.90
52125;DHT22;38119;52.710;6.398;2022-11-15T07:00:22;10.30;99.90
52125;DHT22;38119;52.710;6.398;2022-11-15T07:02:48;10.30;99.90
52125;DHT22;38119;52.710;6.398;2022-11-15T07:05:14;10.30;99.90
52125;DHT22;38119;52.710;6.398;2022-11-15T07:07:40;10.30;99.90
52125;DHT22;38119;52.710;6.398;2022-11-15T07:10:07;10.30;99.90
52125;DHT22;38119;52.710;6.398;2022-11-15T07:12:33;10.30;99.90
52125;DHT22;38119;52.710;6.398;2022-11-15T07:14:58;10.30;99.90
52125;DHT22;38119;52.710;6.398;2022-11-15T07:17:24;10.40;99.90
52125;DHT22;38119;52.710;6.398;2022-11-15T07:19:49;10.40;99.90
52125;DHT22;38119;52.710;6.398;2022-11-15T07:22:15;10.40;99.90
52125;DHT22;38119;52.710;6.398;2022-11-15T07:24:40;10.50;99.90
52125;DHT22;38119;52.710;6.398;2022-11-15T07:27:06;10.50;99.90
52125;DHT22;38119;52.710;6.398;2022-11-15T07:29:32;10.50;99.90
52125;DHT22;38119;52.710;6.398;2022-11-15T07:31:57;10.50;99.90
52125;DHT22;38119;52.710;6.398;2022-11-15T07:34:23;10.50;99.90
52125;DHT22;38119;52.710;6.398;2022-11-15T07:36:49;10.50;99.90
52125;DHT22;38119;52.710;6.398;2022-11-15T07:39:14;10.50;99.90
52125;DHT22;38119;52.710;6.398;2022-11-15T07:41:40;10.50;99.90
52125;DHT22;38119;52.710;6.398;2022-11-15T07:44:06;10.60;99.90
52125;DHT22;38119;52.710;6.398;2022-11-15T07:46:31;10.50;99.90
52125;DHT22;38119;52.710;6.398;2022-11-15T07:48:57;10.60;99.90
52125;DHT22;38119;52.710;6.398;2022-11-15T07:51:26;10.50;99.90
52125;DHT22;38119;52.710;6.398;2022-11-15T07:53:51;10.50;99.90
52125;DHT22;38119;52.710;6.398;2022-11-15T07:56:17;10.60;99.90
52125;DHT22;38119;52.710;6.398;2022-11-15T07:58:42;10.60;99.90
52125;DHT22;38119;52.710;6.398;2022-11-15T08:01:10;10.60;99.90
52125;DHT22;38119;52.710;6.398;2022-11-15T08:03:36;10.60;99.90
52125;DHT22;38119;52.710;6.398;2022-11-15T08:06:02;10.60;99.90
52125;DHT22;38119;52.710;6.398;2022-11-15T08:08:28;10.70;99.90
52125;DHT22;38119;52.710;6.398;2022-11-15T08:10:54;10.60;99.90
52125;DHT22;38119;52.710;6.398;2022-11-15T08:13:20;10.60;99.90
52125;DHT22;38119;52.710;6.398;2022-11-15T08:15:46;10.60;99.90
52125;DHT22;38119;52.710;6.398;2022-11-15T08:18:14;10.70;99.90
52125;DHT22;38119;52.710;6.398;2022-11-15T08:20:40;10.70;99.90
52125;DHT22;38119;52.710;6.398;2022-11-15T08:23:06;10.70;99.90
52125;DHT22;38119;52.710;6.398;2022-11-15T08:25:34;10.70;99.90
52125;DHT22;38119;52.710;6.398;2022-11-15T08:28:02;10.70;99.90
52125;DHT22;38119;52.710;6.398;2022-11-15T08:30:28;10.70;99.90
52125;DHT22;38119;52.710;6.398;2022-11-15T08:32:57;10.80;99.90
52125;DHT22;38119;52.710;6.398;2022-11-15T08:35:23;10.80;99.90
52125;DHT22;38119;52.710;6.398;2022-11-15T08:37:49;10.80;99.90
52125;DHT22;38119;52.710;6.398;2022-11-15T08:40:17;11.00;99.90
52125;DHT22;38119;52.710;6.398;2022-11-15T08:42:46;10.90;99.90
52125;DHT22;38119;52.710;6.398;2022-11-15T08:45:12;10.90;99.90
52125;DHT22;38119;52.710;6.398;2022-11-15T08:47:37;11.00;99.90
52125;DHT22;38119;52.710;6.398;2022-11-15T08:50:03;10.90;99.90
52125;DHT22;38119;52.710;6.398;2022-11-15T08:52:29;11.00;99.90
52125;DHT22;38119;52.710;6.398;2022-11-15T08:54:54;11.00;99.90
52125;DHT22;38119;52.710;6.398;2022-11-15T08:57:20;11.00;99.90
52125;DHT22;38119;52.710;6.398;2022-11-15T08:59:45;11.10;99.90
52125;DHT22;38119;52.710;6.398;2022-11-15T09:02:13;11.10;99.90
52125;DHT22;38119;52.710;6.398;2022-11-15T09:04:42;11.10;99.90
52125;DHT22;38119;52.710;6.398;2022-11-15T09:07:11;11.10;99.90
52125;DHT22;38119;52.710;6.398;2022-11-15T09:09:37;11.10;99.90
52125;DHT22;38119;52.710;6.398;2022-11-15T09:12:04;11.10;99.90
52125;DHT22;38119;52.710;6.398;2022-11-15T09:14:30;11.10;99.90
52125;DHT22;38119;52.710;6.398;2022-11-15T09:16:56;11.20;99.90
52125;DHT22;38119;52.710;6.398;2022-11-15T09:19:22;11.20;99.90
52125;DHT22;38119;52.710;6.398;2022-11-15T09:21:48;11.20;99.90
52125;DHT22;38119;52.710;6.398;2022-11-15T09:24:13;11.20;99.90
52125;DHT22;38119;52.710;6.398;2022-11-15T09:26:40;11.30;99.90
52125;DHT22;38119;52.710;6.398;2022-11-15T09:29:06;11.30;99.90
52125;DHT22;38119;52.710;6.398;2022-11-15T09:31:31;11.30;99.90
52125;DHT22;38119;52.710;6.398;2022-11-15T09:33:57;11.40;99.90
52125;DHT22;38119;52.710;6.398;2022-11-15T09:36:23;11.40;99.90
52125;DHT22;38119;52.710;6.398;2022-11-15T09:38:48;11.50;99.90
52125;DHT22;38119;52.710;6.398;2022-11-15T09:49:01;11.60;99.90
52125;DHT22;38119;52.710;6.398;2022-11-15T09:52:06;11.60;99.90
52125;DHT22;38119;52.710;6.398;2022-11-15T09:54:33;11.60;99.90
52125;DHT22;38119;52.710;6.398;2022-11-15T09:57:06;11.60;99.90
52125;DHT22;38119;52.710;6.398;2022-11-15T09:59:38;11.60;99.90
52125;DHT22;38119;52.710;6.398;2022-11-15T10:04:39;11.60;99.90
52125;DHT22;38119;52.710;6.398;2022-11-15T10:07:35;11.60;99.90
52125;DHT22;38119;52.710;6.398;2022-11-15T10:10:16;11.60;99.90
52125;DHT22;38119;52.710;6.398;2022-11-15T10:12:48;11.70;99.90
52125;DHT22;38119;52.710;6.398;2022-11-15T10:15:17;11.70;99.90
52125;DHT22;38119;52.710;6.398;2022-11-15T10:20:23;11.70;99.90
52125;DHT22;38119;52.710;6.398;2022-11-15T10:22:50;11.70;99.90
52125;DHT22;38119;52.710;6.398;2022-11-15T10:25:35;11.70;99.90
52125;DHT22;38119;52.710;6.398;2022-11-15T10:30:38;11.80;99.90
52125;DHT22;38119;52.710;6.398;2022-11-15T10:41:30;11.90;99.90
52125;DHT22;38119;52.710;6.398;2022-11-15T10:44:19;11.90;99.90
52125;DHT22;38119;52.710;6.398;2022-11-15T10:49:23;11.90;99.90
52125;DHT22;38119;52.710;6.398;2022-11-15T10:52:19;11.90;99.90
52125;DHT22;38119;52.710;6.398;2022-11-15T10:57:53;11.90;99.90
52125;DHT22;38119;52.710;6.398;2022-11-15T11:03:00;11.90;99.90
52125;DHT22;38119;52.710;6.398;2022-11-15T11:08:09;11.90;99.90
52125;DHT22;38119;52.710;6.398;2022-11-15T11:13:29;12.00;99.90
52125;DHT22;38119;52.710;6.398;2022-11-15T11:19:13;12.00;99.90
52125;DHT22;38119;52.710;6.398;2022-11-15T11:21:57;12.00;99.90
52125;DHT22;38119;52.710;6.398;2022-11-15T11:27:26;12.10;99.90
52125;DHT22;38119;52.710;6.398;2022-11-15T11:36:09;12.20;99.90
52125;DHT22;38119;52.710;6.398;2022-11-15T11:41:49;12.30;99.90
52125;DHT22;38119;52.710;6.398;2022-11-15T11:44:41;12.30;99.90
52125;DHT22;38119;52.710;6.398;2022-11-15T11:49:53;12.40;99.90
52125;DHT22;38119;52.710;6.398;2022-11-15T11:52:22;12.40;99.90
52125;DHT22;38119;52.710;6.398;2022-11-15T11:57:34;12.50;99.90
52125;DHT22;38119;52.710;6.398;2022-11-15T12:00:23;12.50;99.90
52125;DHT22;38119;52.710;6.398;2022-11-15T12:08:43;12.70;99.90
52125;DHT22;38119;52.710;6.398;2022-11-15T12:11:21;12.70;99.90
52125;DHT22;38119;52.710;6.398;2022-11-15T12:13:50;12.80;99.90
52125;DHT22;38119;52.710;6.398;2022-11-15T12:16:45;12.90;99.90
52125;DHT22;38119;52.710;6.398;2022-11-15T12:19:10;12.90;99.90
52125;DHT22;38119;52.710;6.398;2022-11-15T12:26:52;12.90;99.90
52125;DHT22;38119;52.710;6.398;2022-11-15T12:29:44;12.90;99.90
52125;DHT22;38119;52.710;6.398;2022-11-15T12:32:32;12.80;99.90
52125;DHT22;38119;52.710;6.398;2022-11-15T12:34:59;12.80;99.90
52125;DHT22;38119;52.710;6.398;2022-11-15T12:42:39;12.80;99.90
52125;DHT22;38119;52.710;6.398;2022-11-15T12:47:50;12.90;99.90
52125;DHT22;38119;52.710;6.398;2022-11-15T12:50:16;12.90;99.90
52125;DHT22;38119;52.710;6.398;2022-11-15T12:58:55;13.00;99.90
52125;DHT22;38119;52.710;6.398;2022-11-15T13:07:03;13.10;99.90
52125;DHT22;38119;52.710;6.398;2022-11-15T13:12:50;13.20;99.90
52125;DHT22;38119;52.710;6.398;2022-11-15T13:14:59;13.30;99.90
52125;DHT22;38119;52.710;6.398;2022-11-15T13:17:37;13.40;99.90
52125;DHT22;38119;52.710;6.398;2022-11-15T13:27:58;13.50;99.90
52125;DHT22;38119;52.710;6.398;2022-11-15T13:30:29;13.50;99.90
52125;DHT22;38119;52.710;6.398;2022-11-15T13:33:05;13.40;99.90
52125;DHT22;38119;52.710;6.398;2022-11-15T13:35:33;13.50;99.90
52125;DHT22;38119;52.710;6.398;2022-11-15T13:38:05;13.50;99.90
52125;DHT22;38119;52.710;6.398;2022-11-15T13:40:35;13.70;99.90
52125;DHT22;38119;52.710;6.398;2022-11-15T13:46:13;13.80;99.90
52125;DHT22;38119;52.710;6.398;2022-11-15T13:48:41;13.60;99.90
52125;DHT22;38119;52.710;6.398;2022-11-15T13:51:20;13.50;99.90
52125;DHT22;38119;52.710;6.398;2022-11-15T13:54:24;13.50;99.90
52125;DHT22;38119;52.710;6.398;2022-11-15T13:56:52;13.40;99.90
52125;DHT22;38119;52.710;6.398;2022-11-15T13:59:28;13.30;99.90
52125;DHT22;38119;52.710;6.398;2022-11-15T14:01:58;13.30;99.90
52125;DHT22;38119;52.710;6.398;2022-11-15T14:04:26;13.20;99.90
52125;DHT22;38119;52.710;6.398;2022-11-15T14:06:56;13.00;99.90
52125;DHT22;38119;52.710;6.398;2022-11-15T14:09:29;12.90;99.90
52125;DHT22;38119;52.710;6.398;2022-11-15T14:11:58;12.70;99.90
52125;DHT22;38119;52.710;6.398;2022-11-15T14:14:29;12.60;99.90
52125;DHT22;38119;52.710;6.398;2022-11-15T14:16:59;12.50;99.90
52125;DHT22;38119;52.710;6.398;2022-11-15T14:22:17;12.50;99.90
52125;DHT22;38119;52.710;6.398;2022-11-15T14:24:45;12.40;99.90
52125;DHT22;38119;52.710;6.398;2022-11-15T14:27:41;12.40;99.90
52125;DHT22;38119;52.710;6.398;2022-11-15T14:30:16;12.30;99.90
52125;DHT22;38119;52.710;6.398;2022-11-15T14:32:49;12.20;99.90
52125;DHT22;38119;52.710;6.398;2022-11-15T14:35:21;12.20;99.90
52125;DHT22;38119;52.710;6.398;2022-11-15T14:37:47;12.10;99.90
52125;DHT22;38119;52.710;6.398;2022-11-15T14:40:15;12.10;99.90
52125;DHT22;38119;52.710;6.398;2022-11-15T14:42:43;12.10;99.90
52125;DHT22;38119;52.710;6.398;2022-11-15T14:45:16;12.10;99.90
52125;DHT22;38119;52.710;6.398;2022-11-15T14:47:43;12.00;99.90
52125;DHT22;38119;52.710;6.398;2022-11-15T14:50:17;12.00;99.90
52125;DHT22;38119;52.710;6.398;2022-11-15T14:52:43;12.00;99.90
52125;DHT22;38119;52.710;6.398;2022-11-15T14:55:25;11.90;99.90
52125;DHT22;38119;52.710;6.398;2022-11-15T14:57:53;11.90;99.90
52125;DHT22;38119;52.710;6.398;2022-11-15T15:00:19;11.90;99.90
52125;DHT22;38119;52.710;6.398;2022-11-15T15:02:47;11.90;99.90
52125;DHT22;38119;52.710;6.398;2022-11-15T15:05:17;11.90;99.90
52125;DHT22;38119;52.710;6.398;2022-11-15T15:07:43;11.90;99.90
52125;DHT22;38119;52.710;6.398;2022-11-15T15:10:10;11.90;99.90
52125;DHT22;38119;52.710;6.398;2022-11-15T15:12:36;11.90;99.90
52125;DHT22;38119;52.710;6.398;2022-11-15T15:15:02;11.80;99.90
52125;DHT22;38119;52.710;6.398;2022-11-15T15:17:30;11.80;99.90
52125;DHT22;38119;52.710;6.398;2022-11-15T15:19:56;11.80;99.90
52125;DHT22;38119;52.710;6.398;2022-11-15T15:22:22;11.80;99.90
52125;DHT22;38119;52.710;6.398;2022-11-15T15:24:51;11.80;99.90
52125;DHT22;38119;52.710;6.398;2022-11-15T15:27:16;11.80;99.90
52125;DHT22;38119;52.710;6.398;2022-11-15T15:29:42;11.70;99.90
52125;DHT22;38119;52.710;6.398;2022-11-15T15:32:09;11.70;99.90
52125;DHT22;38119;52.710;6.398;2022-11-15T15:34:35;11.60;99.90
52125;DHT22;38119;52.710;6.398;2022-11-15T15:37:23;11.60;99.90
52125;DHT22;38119;52.710;6.398;2022-11-15T15:39:53;11.50;99.90
52125;DHT22;38119;52.710;6.398;2022-11-15T15:42:20;11.50;99.90
52125;DHT22;38119;52.710;6.398;2022-11-15T15:44:47;11.40;99.90
52125;DHT22;38119;52.710;6.398;2022-11-15T15:47:21;11.40;99.90
52125;DHT22;38119;52.710;6.398;2022-11-15T15:49:49;11.40;99.90
52125;DHT22;38119;52.710;6.398;2022-11-15T15:52:15;11.30;99.90
52125;DHT22;38119;52.710;6.398;2022-11-15T15:54:41;11.30;99.90
52125;DHT22;38119;52.710;6.398;2022-11-15T15:57:08;11.20;99.90
52125;DHT22;38119;52.710;6.398;2022-11-15T15:59:36;11.20;99.90
52125;DHT22;38119;52.710;6.398;2022-11-15T16:02:01;11.20;99.90
52125;DHT22;38119;52.710;6.398;2022-11-15T16:04:27;11.10;99.90
52125;DHT22;38119;52.710;6.398;2022-11-15T16:07:00;11.10;99.90
52125;DHT22;38119;52.710;6.398;2022-11-15T16:09:26;11.10;99.90
52125;DHT22;38119;52.710;6.398;2022-11-15T16:12:11;11.10;99.90
52125;DHT22;38119;52.710;6.398;2022-11-15T16:14:36;11.10;99.90
52125;DHT22;38119;52.710;6.398;2022-11-15T16:17:03;11.10;99.90
52125;DHT22;38119;52.710;6.398;2022-11-15T16:19:29;11.10;99.90
52125;DHT22;38119;52.710;6.398;2022-11-15T16:21:56;11.10;99.90
52125;DHT22;38119;52.710;6.398;2022-11-15T16:24:22;11.10;99.90
52125;DHT22;38119;52.710;6.398;2022-11-15T16:26:50;11.10;99.90
52125;DHT22;38119;52.710;6.398;2022-11-15T16:29:16;11.10;99.90
52125;DHT22;38119;52.710;6.398;2022-11-15T16:31:42;11.10;99.90
52125;DHT22;38119;52.710;6.398;2022-11-15T16:34:08;11.10;99.90
52125;DHT22;38119;52.710;6.398;2022-11-15T16:36:34;11.10;99.90
52125;DHT22;38119;52.710;6.398;2022-11-15T16:39:00;11.00;99.90
52125;DHT22;38119;52.710;6.398;2022-11-15T16:41:29;11.10;99.90
52125;DHT22;38119;52.710;6.398;2022-11-15T16:43:55;11.10;99.90
52125;DHT22;38119;52.710;6.398;2022-11-15T16:46:23;11.10;99.90
52125;DHT22;38119;52.710;6.398;2022-11-15T16:48:50;11.10;99.90
52125;DHT22;38119;52.710;6.398;2022-11-15T16:51:16;11.70;99.90
52125;DHT22;38119;52.710;6.398;2022-11-15T16:53:42;11.10;99.90
52125;DHT22;38119;52.710;6.398;2022-11-15T16:58:42;11.10;99.90
52125;DHT22;38119;52.710;6.398;2022-11-15T17:01:19;11.10;99.90
52125;DHT22;38119;52.710;6.398;2022-11-15T17:03:46;11.10;99.90
52125;DHT22;38119;52.710;6.398;2022-11-15T17:06:13;11.10;99.90
52125;DHT22;38119;52.710;6.398;2022-11-15T17:08:38;11.20;99.90
52125;DHT22;38119;52.710;6.398;2022-11-15T17:11:05;11.10;99.90
52125;DHT22;38119;52.710;6.398;2022-11-15T17:13:31;11.20;99.90
52125;DHT22;38119;52.710;6.398;2022-11-15T17:16:09;11.20;99.90
52125;DHT22;38119;52.710;6.398;2022-11-15T17:18:36;11.20;99.90
52125;DHT22;38119;52.710;6.398;2022-11-15T17:21:12;11.20;99.90
52125;DHT22;38119;52.710;6.398;2022-11-15T17:23:38;11.20;99.90
52125;DHT22;38119;52.710;6.398;2022-11-15T17:26:04;11.20;99.90
52125;DHT22;38119;52.710;6.398;2022-11-15T17:28:31;11.20;99.90
52125;DHT22;38119;52.710;6.398;2022-11-15T17:30:57;11.60;99.90
52125;DHT22;38119;52.710;6.398;2022-11-15T17:33:24;11.20;99.90
52125;DHT22;38119;52.710;6.398;2022-11-15T17:35:57;11.20;99.90
52125;DHT22;38119;52.710;6.398;2022-11-15T17:38:23;11.20;99.90
52125;DHT22;38119;52.710;6.398;2022-11-15T17:41:02;11.20;99.90
52125;DHT22;38119;52.710;6.398;2022-11-15T17:43:29;11.30;99.90
52125;DHT22;38119;52.710;6.398;2022-11-15T17:45:56;11.30;99.90
52125;DHT22;38119;52.710;6.398;2022-11-15T17:48:21;11.30;99.90
52125;DHT22;38119;52.710;6.398;2022-11-15T17:50:58;11.30;99.90
52125;DHT22;38119;52.710;6.398;2022-11-15T17:53:24;11.70;99.90
52125;DHT22;38119;52.710;6.398;2022-11-15T17:55:51;11.30;99.90
52125;DHT22;38119;52.710;6.398;2022-11-15T17:58:17;11.30;99.90
52125;DHT22;38119;52.710;6.398;2022-11-15T18:00:45;11.30;99.90
52125;DHT22;38119;52.710;6.398;2022-11-15T18:03:10;11.30;99.90
52125;DHT22;38119;52.710;6.398;2022-11-15T18:05:37;11.40;99.90
52125;DHT22;38119;52.710;6.398;2022-11-15T18:08:03;11.30;99.90
52125;DHT22;38119;52.710;6.398;2022-11-15T18:10:29;11.30;99.90
52125;DHT22;38119;52.710;6.398;2022-11-15T18:12:54;11.30;99.90